createdAt,value
2018-08-02T00:01:57.691Z,1.03
2018-08-02T00:04:30.658Z,0.40
2018-08-02T00:07:03.824Z,0.43
2018-08-02T00:09:36.746Z,0.60
2018-08-02T00:12:09.734Z,0.60
2018-08-02T00:14:42.601Z,0.60
2018-08-02T00:17:15.669Z,0.90
2018-08-02T00:19:48.678Z,0.67
2018-08-02T00:22:21.909Z,0.80
2018-08-02T00:24:54.899Z,0.40
2018-08-02T00:27:27.889Z,0.70
2018-08-02T00:30:00.808Z,0.50
2018-08-02T00:32:33.731Z,0.60
2018-08-02T00:35:06.810Z,0.70
2018-08-02T00:37:39.927Z,0.90
2018-08-02T00:40:13.544Z,2.63
2018-08-02T00:42:46.516Z,1.07
2018-08-02T00:45:19.664Z,1.07
2018-08-02T00:47:53.144Z,0.63
2018-08-02T00:50:26.887Z,0.50
2018-08-02T00:53:00.277Z,0.70
2018-08-02T00:55:33.656Z,0.50
2018-08-02T00:58:07.136Z,0.80
2018-08-02T01:00:40.757Z,0.87
2018-08-02T01:03:14.342Z,0.97
2018-08-02T01:05:48.292Z,2.03
2018-08-02T01:08:22.732Z,0.65
2018-08-02T01:10:56.406Z,0.90
2018-08-02T01:13:32.204Z,0.80
2018-08-02T01:16:07.075Z,0.90
2018-08-02T01:18:40.703Z,0.50
2018-08-02T01:21:14.308Z,0.97
2018-08-02T01:23:47.875Z,0.80
2018-08-02T01:26:21.024Z,0.88
2018-08-02T01:28:53.989Z,0.80
2018-08-02T01:31:26.917Z,0.70
2018-08-02T01:33:59.733Z,1.83
2018-08-02T01:36:35.310Z,0.63
2018-08-02T01:39:10.269Z,0.50
2018-08-02T01:41:43.294Z,1.20
2018-08-02T01:44:25.170Z,0.50
2018-08-02T01:46:58.218Z,0.53
2018-08-02T01:49:31.175Z,0.85
2018-08-02T01:52:04.090Z,2.53
2018-08-02T01:54:37.175Z,0.53
2018-08-02T01:57:10.258Z,0.53
2018-08-02T01:59:43.293Z,1.27
2018-08-02T02:02:16.363Z,0.40
2018-08-02T02:04:49.314Z,0.57
2018-08-02T02:07:22.269Z,0.55
2018-08-02T02:09:55.286Z,0.40
2018-08-02T02:12:28.279Z,0.68
2018-08-02T02:15:01.265Z,0.77
2018-08-02T02:17:34.249Z,0.80
2018-08-02T02:20:08.470Z,0.80
2018-08-02T02:22:41.489Z,1.00
2018-08-02T02:25:16.118Z,0.87
2018-08-02T02:27:49.134Z,1.27
2018-08-02T02:30:22.157Z,0.70
2018-08-02T02:32:55.181Z,0.50
2018-08-02T02:35:28.297Z,0.40
2018-08-02T02:38:01.360Z,0.40
2018-08-02T02:40:34.386Z,0.40
2018-08-02T02:43:07.366Z,0.40
2018-08-02T02:45:40.365Z,0.40
2018-08-02T02:48:13.534Z,0.87
2018-08-02T02:50:46.509Z,0.40
2018-08-02T02:53:19.538Z,0.47
2018-08-02T02:55:52.445Z,0.43
2018-08-02T02:58:25.484Z,0.47
2018-08-02T03:00:58.534Z,0.30
2018-08-02T03:03:31.496Z,0.40
2018-08-02T03:06:04.375Z,0.70
2018-08-02T03:08:37.393Z,0.50
2018-08-02T03:11:10.519Z,0.50
2018-08-02T03:13:43.509Z,0.40
2018-08-02T03:16:16.610Z,0.57
2018-08-02T03:18:49.558Z,0.40
2018-08-02T03:21:22.411Z,0.70
2018-08-02T03:23:55.961Z,1.00
2018-08-02T03:26:28.954Z,0.40
2018-08-02T03:29:02.546Z,0.47
2018-08-02T03:31:35.535Z,0.53
2018-08-02T03:34:08.554Z,0.60
2018-08-02T03:36:41.596Z,0.80
2018-08-02T03:39:15.290Z,0.70
2018-08-02T03:41:48.374Z,0.60
2018-08-02T03:44:21.353Z,1.07
2018-08-02T03:50:02.097Z,0.90
2018-08-02T03:52:35.025Z,0.40
2018-08-02T03:55:07.994Z,0.87
2018-08-02T03:57:41.019Z,0.50
2018-08-02T04:00:14.067Z,0.40
2018-08-02T04:02:47.066Z,0.40
2018-08-02T04:05:20.053Z,0.72
2018-08-02T04:07:53.082Z,0.83
2018-08-02T04:10:26.116Z,0.62
2018-08-02T04:12:59.004Z,0.53
2018-08-02T04:15:31.934Z,0.50
2018-08-02T04:18:04.858Z,0.60
2018-08-02T04:20:37.838Z,0.60
2018-08-02T04:23:10.797Z,0.53
2018-08-02T04:25:43.706Z,0.53
2018-08-02T04:28:16.748Z,0.53
2018-08-02T04:30:49.754Z,0.60
2018-08-02T04:33:22.731Z,0.60
2018-08-02T04:35:55.675Z,0.70
2018-08-02T04:38:28.654Z,0.45
2018-08-02T04:41:01.570Z,0.50
2018-08-02T04:43:34.677Z,0.40
2018-08-02T04:46:07.845Z,1.00
2018-08-02T04:48:40.818Z,0.50
2018-08-02T04:51:13.798Z,0.70
2018-08-02T04:53:46.705Z,1.13
2018-08-02T04:56:19.768Z,1.00
2018-08-02T04:58:52.665Z,0.60
2018-08-02T05:01:25.667Z,1.27
2018-08-02T05:03:58.695Z,1.17
2018-08-02T05:06:31.818Z,0.80
2018-08-02T05:09:05.122Z,0.40
2018-08-02T05:11:38.086Z,0.50
2018-08-02T05:14:11.241Z,0.50
2018-08-02T05:16:44.257Z,0.47
2018-08-02T05:19:17.152Z,0.60
2018-08-02T05:21:50.041Z,0.83
2018-08-02T05:24:22.913Z,0.50
2018-08-02T05:26:55.948Z,0.50
2018-08-02T05:29:28.889Z,0.60
2018-08-02T05:32:01.861Z,0.70
2018-08-02T05:34:34.913Z,0.50
2018-08-02T05:37:07.853Z,0.63
2018-08-02T05:39:40.814Z,0.60
2018-08-02T05:42:14.977Z,1.37
2018-08-02T05:44:47.937Z,0.40
2018-08-02T05:47:20.849Z,0.50
2018-08-02T05:49:53.858Z,0.90
2018-08-02T05:52:26.933Z,0.70
2018-08-02T05:54:59.933Z,0.80
2018-08-02T05:57:32.902Z,1.02
2018-08-02T06:00:06.965Z,0.53
2018-08-02T06:02:40.336Z,0.50
2018-08-02T06:05:13.277Z,0.60
2018-08-02T06:07:47.182Z,0.60
2018-08-02T06:10:20.111Z,0.50
2018-08-02T06:12:53.029Z,0.40
2018-08-02T06:15:25.962Z,0.37
2018-08-02T06:17:58.886Z,1.30
2018-08-02T06:20:31.743Z,0.60
2018-08-02T06:23:04.581Z,1.10
2018-08-02T06:25:37.697Z,1.77
2018-08-02T06:28:10.990Z,0.97
2018-08-02T06:30:43.965Z,0.70
2018-08-02T06:33:16.972Z,0.80
2018-08-02T06:35:51.029Z,0.70
2018-08-02T06:38:23.926Z,0.78
2018-08-02T06:40:57.500Z,0.50
2018-08-02T06:43:39.517Z,0.90
2018-08-02T06:46:14.049Z,0.83
2018-08-02T06:48:43.766Z,0.70
2018-08-02T06:51:16.690Z,0.80
2018-08-02T06:53:50.928Z,0.97
2018-08-02T06:56:23.861Z,0.90
2018-08-02T06:58:56.841Z,0.60
2018-08-02T07:01:29.748Z,0.57
2018-08-02T07:04:02.670Z,0.63
2018-08-02T07:06:35.674Z,0.60
2018-08-02T07:09:11.145Z,0.40
2018-08-02T07:11:44.102Z,0.70
2018-08-02T07:14:17.073Z,0.50
2018-08-02T07:16:50.068Z,0.77
2018-08-02T07:19:23.045Z,0.60
2018-08-02T07:21:55.973Z,0.40
2018-08-02T07:24:28.936Z,1.23
2018-08-02T07:27:01.917Z,0.50
2018-08-02T07:29:35.010Z,0.90
2018-08-02T07:32:07.970Z,0.70
2018-08-02T07:34:40.944Z,0.67
2018-08-02T08:06:10.650Z,0.67
2018-08-02T08:08:43.653Z,0.53
2018-08-02T08:11:16.729Z,0.60
2018-08-02T08:13:49.682Z,0.90
2018-08-02T08:16:22.845Z,0.50
2018-08-02T08:18:55.937Z,0.87
2018-08-02T08:21:28.950Z,1.00
2018-08-02T08:24:01.906Z,0.43
2018-08-02T08:26:34.893Z,0.40
2018-08-02T08:29:07.954Z,0.30
2018-08-02T08:31:40.913Z,0.47
2018-08-02T08:34:13.873Z,0.50
2018-08-02T08:36:46.835Z,0.53
2018-08-02T08:39:19.795Z,0.60
2018-08-02T08:41:52.829Z,0.50
2018-08-02T08:44:26.297Z,1.37
2018-08-02T08:46:59.686Z,0.60
2018-08-02T08:49:41.495Z,0.70
2018-08-02T08:52:15.317Z,0.50
2018-08-02T08:54:48.371Z,0.60
2018-08-02T08:57:21.268Z,0.70
2018-08-02T08:59:55.440Z,0.73
2018-08-02T09:02:28.379Z,0.97
2018-08-02T09:05:01.362Z,0.60
2018-08-02T09:07:34.276Z,0.53
2018-08-02T09:10:07.269Z,0.50
2018-08-02T09:12:40.207Z,1.03
2018-08-02T09:15:13.193Z,1.13
2018-08-02T09:17:46.193Z,0.50
2018-08-02T09:20:19.096Z,0.50
2018-08-02T09:22:52.017Z,0.50
2018-08-02T09:25:25.966Z,0.50
2018-08-02T09:27:59.121Z,0.40
2018-08-02T09:30:32.154Z,1.47
2018-08-02T09:33:05.131Z,0.63
2018-08-02T09:35:38.657Z,0.73
2018-08-02T09:38:11.635Z,0.50
2018-08-02T09:40:44.519Z,0.80
2018-08-02T09:43:17.487Z,0.43
2018-08-02T09:45:50.570Z,0.80
2018-08-02T09:48:23.642Z,1.00
2018-08-02T09:50:56.726Z,0.73
2018-08-02T09:53:29.722Z,0.70
2018-08-02T09:56:02.738Z,1.07
2018-08-02T09:58:35.638Z,0.50
2018-08-02T10:01:12.721Z,1.40
2018-08-02T10:03:45.694Z,0.77
2018-08-02T10:06:18.650Z,1.00
2018-08-02T10:08:51.627Z,0.50
2018-08-02T10:11:24.554Z,1.07
2018-08-02T10:13:57.521Z,1.10
2018-08-02T10:16:30.442Z,0.80
2018-08-02T10:19:03.638Z,0.90
2018-08-02T10:21:36.600Z,1.20
2018-08-02T10:24:08.531Z,0.60
2018-08-02T10:26:41.441Z,0.60
2018-08-02T10:29:15.061Z,1.07
2018-08-02T10:31:47.972Z,0.50
2018-08-02T10:34:20.978Z,1.40
2018-08-02T10:36:53.961Z,0.87
2018-08-02T10:39:26.915Z,0.80
2018-08-02T10:41:59.826Z,0.57
2018-08-02T10:44:32.939Z,1.27
2018-08-02T10:47:05.989Z,0.67
2018-08-02T10:49:39.030Z,0.70
2018-08-02T10:52:12.006Z,0.60
2018-08-02T10:54:45.046Z,1.23
2018-08-02T10:57:18.046Z,0.83
2018-08-02T10:59:51.097Z,0.60
2018-08-02T11:02:23.978Z,0.40
2018-08-02T11:04:56.925Z,1.10
2018-08-02T11:07:29.845Z,0.60
2018-08-02T11:10:02.777Z,3.40
2018-08-02T11:12:35.784Z,0.60
2018-08-02T11:15:08.937Z,1.07
2018-08-02T11:17:41.928Z,0.47
2018-08-02T11:20:15.213Z,0.50
2018-08-02T11:22:48.233Z,1.03
2018-08-02T11:25:21.321Z,7.00
2018-08-02T11:27:54.556Z,4.77
2018-08-02T11:30:27.630Z,1.60
2018-08-02T11:33:00.665Z,1.77
2018-08-02T11:35:33.697Z,4.70
2018-08-02T11:38:06.682Z,4.23
2018-08-02T11:40:39.677Z,1.43
2018-08-02T11:43:12.556Z,0.90
2018-08-02T11:45:45.546Z,1.10
2018-08-02T11:48:18.521Z,1.60
2018-08-02T11:50:51.532Z,0.90
2018-08-02T11:53:24.563Z,0.82
2018-08-02T11:55:57.534Z,0.97
2018-08-02T11:58:30.469Z,0.68
2018-08-02T12:01:03.466Z,0.60
2018-08-02T12:03:36.500Z,0.70
2018-08-02T12:06:09.446Z,1.20
2018-08-02T12:08:42.330Z,0.73
2018-08-02T12:11:15.209Z,1.10
2018-08-02T12:13:48.174Z,0.73
2018-08-02T12:16:21.251Z,1.00
2018-08-02T12:18:54.301Z,0.90
2018-08-02T12:21:27.245Z,0.60
2018-08-02T12:24:00.192Z,0.80
2018-08-02T12:26:33.222Z,0.63
2018-08-02T12:29:06.204Z,0.57
2018-08-02T12:31:39.238Z,0.93
2018-08-02T12:34:12.205Z,1.00
2018-08-02T12:36:45.227Z,1.10
2018-08-02T12:39:18.298Z,0.90
2018-08-02T12:41:52.078Z,1.00
2018-08-02T12:44:25.075Z,0.90
2018-08-02T12:46:58.036Z,0.70
2018-08-02T12:49:31.058Z,0.53
2018-08-02T12:52:04.091Z,0.43
2018-08-02T12:54:37.155Z,1.37
2018-08-02T12:57:10.408Z,1.10
2018-08-02T12:59:43.556Z,1.13
2018-08-02T13:02:16.545Z,0.50
2018-08-02T13:04:49.508Z,1.20
2018-08-02T13:07:22.481Z,1.40
2018-08-02T13:09:55.524Z,3.50
2018-08-02T13:12:28.547Z,3.70
2018-08-02T13:15:01.592Z,3.93
2018-08-02T13:17:34.636Z,4.40
2018-08-02T13:20:07.698Z,4.37
2018-08-02T13:22:40.653Z,4.23
2018-08-02T13:25:13.625Z,4.90
2018-08-02T13:27:46.694Z,4.63
2018-08-02T13:30:19.826Z,5.37
2018-08-02T13:32:52.754Z,5.27
2018-08-02T13:35:25.879Z,5.77
2018-08-02T13:37:58.823Z,5.40
2018-08-02T13:40:31.734Z,5.53
2018-08-02T13:43:04.746Z,6.77
2018-08-02T13:45:37.716Z,6.50
2018-08-02T13:48:10.657Z,7.17
2018-08-02T13:50:43.638Z,7.20
2018-08-02T13:53:16.626Z,6.80
2018-08-02T13:55:49.574Z,5.80
2018-08-02T13:58:22.615Z,5.80
2018-08-02T14:00:55.575Z,5.77
2018-08-02T14:03:28.464Z,6.30
2018-08-02T14:06:01.522Z,6.07
2018-08-02T14:08:34.410Z,8.07
2018-08-02T14:11:07.508Z,6.60
2018-08-02T14:13:40.501Z,7.97
2018-08-02T14:16:13.511Z,6.60
2018-08-02T14:18:46.486Z,6.83
2018-08-02T14:21:19.518Z,6.37
2018-08-02T14:23:52.482Z,6.13
2018-08-02T14:26:26.651Z,6.93
2018-08-02T14:28:59.863Z,6.10
2018-08-02T14:31:32.767Z,7.15
2018-08-02T14:34:05.961Z,6.80
2018-08-02T14:36:39.034Z,6.20
2018-08-02T14:39:13.781Z,6.20
2018-08-02T14:41:46.694Z,7.53
2018-08-02T14:44:19.654Z,6.30
2018-08-02T14:46:52.613Z,7.10
2018-08-02T14:49:25.586Z,7.80
2018-08-02T14:51:58.490Z,7.60
2018-08-02T14:54:31.469Z,7.03
2018-08-02T14:57:04.481Z,6.17
2018-08-02T14:59:37.494Z,5.77
2018-08-02T15:02:10.743Z,6.40
2018-08-02T15:04:43.654Z,5.87
2018-08-02T15:07:16.693Z,7.67
2018-08-02T15:09:49.714Z,6.80
2018-08-02T15:12:22.688Z,6.95
2018-08-02T15:14:55.704Z,7.17
2018-08-02T15:17:28.561Z,6.90
2018-08-02T15:20:01.612Z,6.93
2018-08-02T15:22:34.561Z,6.57
2018-08-02T15:25:07.897Z,6.30
2018-08-02T15:27:40.877Z,7.00
2018-08-02T15:30:13.892Z,6.60
2018-08-02T15:32:47.290Z,6.90
2018-08-02T15:35:20.445Z,7.40
2018-08-02T15:37:53.641Z,6.40
2018-08-02T15:40:26.694Z,7.40
2018-08-02T15:42:59.659Z,8.03
2018-08-02T15:45:32.673Z,6.67
2018-08-02T15:48:06.553Z,7.40
2018-08-02T15:50:39.529Z,7.50
2018-08-02T15:53:13.353Z,7.53
2018-08-02T15:55:46.202Z,6.80
2018-08-02T15:58:19.269Z,8.77
2018-08-02T16:00:52.214Z,7.40
2018-08-02T16:03:25.102Z,7.45
2018-08-02T16:05:58.176Z,7.70
2018-08-02T16:08:31.184Z,7.17
2018-08-02T16:11:04.371Z,6.93
2018-08-02T16:13:37.309Z,7.40
2018-08-02T16:16:10.301Z,9.30
2018-08-02T16:18:43.157Z,7.20
2018-08-02T16:21:16.125Z,9.90
2018-08-02T16:23:49.001Z,7.80
2018-08-02T16:26:22.066Z,8.60
2018-08-02T16:28:54.982Z,7.50
2018-08-02T16:31:28.017Z,8.33
2018-08-02T16:34:00.959Z,8.10
2018-08-02T16:36:33.941Z,7.63
2018-08-02T16:39:07.361Z,7.83
2018-08-02T16:41:40.741Z,9.17
2018-08-02T16:44:14.059Z,9.40
2018-08-02T16:46:47.112Z,8.17
2018-08-02T16:49:20.090Z,8.93
2018-08-02T16:51:52.979Z,8.13
2018-08-02T16:54:26.006Z,9.03
2018-08-02T16:56:58.934Z,9.70
2018-08-02T16:59:31.974Z,8.00
2018-08-02T17:02:04.964Z,8.60
2018-08-02T17:04:38.052Z,8.40
2018-08-02T17:07:11.282Z,8.67
2018-08-02T17:09:44.271Z,7.90
2018-08-02T17:12:17.238Z,7.97
2018-08-02T17:14:50.201Z,7.97
2018-08-02T17:17:23.220Z,8.20
2018-08-02T17:19:56.322Z,6.63
2018-08-02T17:22:29.421Z,7.50
2018-08-02T17:25:02.420Z,7.80
2018-08-02T17:27:35.405Z,7.07
2018-08-02T17:30:08.573Z,7.15
2018-08-02T17:32:41.545Z,7.03
2018-08-02T17:35:15.087Z,7.40
2018-08-02T17:37:48.218Z,6.90
2018-08-02T17:40:21.133Z,7.85
2018-08-02T17:42:54.100Z,7.30
2018-08-02T17:45:27.170Z,7.77
2018-08-02T17:48:00.147Z,7.67
2018-08-02T17:50:33.185Z,7.73
2018-08-02T17:53:06.082Z,6.80
2018-08-02T17:55:39.045Z,6.90
2018-08-02T17:58:12.112Z,6.37
2018-08-02T18:00:45.141Z,8.07
2018-08-02T18:03:18.105Z,7.50
2018-08-02T18:05:51.601Z,6.63
2018-08-02T18:08:24.589Z,7.87
2018-08-02T18:10:57.561Z,7.63
2018-08-02T18:13:30.545Z,7.20
2018-08-02T18:16:03.549Z,7.27
2018-08-02T18:18:36.414Z,7.53
2018-08-02T18:21:09.426Z,7.07
2018-08-02T18:23:42.355Z,6.30
2018-08-02T18:26:15.339Z,6.60
2018-08-02T18:28:49.545Z,7.13
2018-08-02T18:31:22.524Z,7.20
2018-08-02T18:33:55.479Z,6.90
2018-08-02T18:36:28.470Z,6.97
2018-08-02T18:39:01.810Z,6.57
2018-08-02T18:41:34.762Z,5.83
2018-08-02T18:44:07.718Z,7.40
2018-08-02T18:46:40.682Z,6.27
2018-08-02T18:49:13.703Z,6.40
2018-08-02T18:51:46.771Z,6.97
2018-08-02T18:54:19.678Z,6.83
2018-08-02T18:56:52.696Z,6.27
2018-08-02T18:59:25.718Z,6.92
2018-08-02T19:01:58.982Z,6.90
2018-08-02T19:04:31.986Z,7.47
2018-08-02T19:07:05.009Z,7.30
2018-08-02T19:09:37.965Z,7.20
2018-08-02T19:12:11.272Z,7.30
2018-08-02T19:14:44.315Z,7.33
2018-08-02T19:17:17.451Z,7.83
2018-08-02T19:19:50.574Z,7.30
2018-08-02T19:22:23.712Z,7.65
2018-08-02T19:24:56.816Z,7.13
2018-08-02T19:27:29.905Z,7.67
2018-08-02T19:30:02.856Z,8.13
2018-08-02T19:32:36.032Z,7.60
2018-08-02T19:35:09.405Z,9.13
2018-08-02T19:37:42.527Z,8.17
2018-08-02T19:40:15.595Z,7.47
2018-08-02T19:42:48.565Z,7.50
2018-08-02T19:45:21.648Z,8.20
2018-08-02T19:47:54.746Z,7.70
2018-08-02T19:50:27.807Z,7.75
2018-08-02T19:53:00.927Z,8.13
2018-08-02T19:55:33.957Z,7.67
2018-08-02T19:58:06.898Z,7.10
2018-08-02T20:00:39.916Z,7.40
2018-08-02T20:03:12.928Z,7.20
2018-08-02T20:05:45.944Z,8.17
2018-08-02T20:08:18.946Z,8.80
2018-08-02T20:10:52.059Z,9.03
2018-08-02T20:13:25.032Z,7.73
2018-08-02T20:15:58.158Z,8.07
2018-08-02T20:18:31.138Z,7.35
2018-08-02T20:21:08.626Z,7.73
2018-08-02T20:23:41.584Z,8.70
2018-08-02T20:26:15.328Z,8.78
2018-08-02T20:28:48.283Z,8.20
2018-08-02T20:31:21.357Z,7.63
2018-08-02T20:33:54.269Z,8.70
2018-08-02T20:36:27.244Z,8.70
2018-08-02T20:39:00.364Z,8.33
2018-08-02T20:41:33.448Z,8.33
2018-08-02T20:44:06.463Z,8.30
2018-08-02T20:46:39.639Z,7.87
2018-08-02T20:49:12.655Z,8.13
2018-08-02T20:51:45.744Z,7.40
2018-08-02T20:54:18.920Z,10.10
2018-08-02T20:56:52.095Z,11.40
2018-08-02T20:59:25.015Z,9.93
2018-08-02T21:01:58.307Z,10.60
2018-08-02T21:04:31.325Z,9.80
2018-08-02T21:07:04.208Z,11.50
2018-08-02T21:09:37.301Z,11.90
2018-08-02T21:12:10.394Z,10.13
2018-08-02T21:14:43.459Z,11.70
2018-08-02T21:17:16.483Z,11.67
2018-08-02T21:19:50.305Z,11.50
2018-08-02T21:22:23.365Z,11.00
2018-08-02T21:24:56.725Z,11.33
2018-08-02T21:27:29.801Z,10.53
2018-08-02T21:30:02.860Z,10.50
2018-08-02T21:32:35.815Z,11.37
2018-08-02T21:35:08.896Z,11.70
2018-08-02T21:37:41.905Z,11.10
2018-08-02T21:40:15.293Z,10.85
2018-08-02T21:42:48.341Z,11.47
2018-08-02T21:45:21.393Z,10.85
2018-08-02T21:47:54.484Z,11.10
2018-08-02T21:50:27.575Z,11.50
2018-08-02T21:53:00.612Z,11.47
2018-08-02T21:55:33.742Z,11.37
2018-08-02T21:58:06.867Z,12.97
2018-08-02T22:00:41.503Z,11.67
2018-08-02T22:03:16.819Z,11.83
2018-08-02T22:05:49.891Z,11.77
2018-08-02T22:08:22.908Z,11.50
2018-08-02T22:10:56.007Z,10.73
2018-08-02T22:13:32.918Z,12.10
2018-08-02T22:16:06.445Z,11.17
2018-08-02T22:18:39.521Z,11.43
2018-08-02T22:21:12.572Z,13.93
2018-08-02T22:23:45.642Z,14.20
2018-08-02T22:26:18.616Z,12.57
2018-08-02T22:28:51.643Z,12.60
2018-08-02T22:31:24.969Z,11.80
2018-08-02T22:33:58.017Z,12.20
2018-08-02T22:36:31.072Z,11.47
2018-08-02T22:39:05.203Z,11.20
2018-08-02T22:41:38.665Z,11.70
2018-08-02T22:44:11.788Z,10.90
2018-08-02T22:46:44.740Z,10.03
2018-08-02T22:49:17.820Z,10.63
2018-08-02T22:51:50.792Z,11.17
2018-08-02T22:54:23.866Z,10.15
2018-08-02T22:56:56.834Z,10.03
2018-08-02T22:59:29.902Z,10.37
2018-08-02T23:02:03.934Z,9.90
2018-08-02T23:04:36.919Z,9.47
2018-08-02T23:07:09.987Z,10.07
2018-08-02T23:09:43.116Z,8.80
2018-08-02T23:12:16.381Z,10.30
2018-08-02T23:14:49.554Z,9.27
2018-08-02T23:17:22.735Z,9.35
2018-08-02T23:19:55.982Z,8.50
2018-08-02T23:22:29.208Z,9.20
2018-08-02T23:25:02.593Z,9.80
2018-08-02T23:27:35.874Z,9.80
2018-08-02T23:30:09.023Z,10.60
2018-08-02T23:32:42.212Z,10.00
2018-08-02T23:35:15.370Z,11.70
2018-08-02T23:37:48.439Z,11.80
2018-08-02T23:40:21.478Z,10.20
2018-08-02T23:42:54.539Z,10.17
2018-08-02T23:45:27.479Z,9.73
2018-08-02T23:48:00.475Z,8.60
2018-08-02T23:50:33.530Z,9.60
2018-08-02T23:53:06.696Z,8.90
2018-08-02T23:55:40.767Z,9.23
2018-08-02T23:58:13.714Z,9.17
